Time;durP1;ratioP1;P1;durP2;ratioP2;P2;SDS_P1;SDS_P2;PMS_P1;PMS_P2;Temp;Humidity;BMP_temperature;BMP_pressure;BME280_temperature;BME280_humidity;BME280_pressure;Samples;Min_cycle;Max_cycle;Signal;HPM_P1;HPM_P2
2022/10/09 00:00:46;;;;;;;;;;;23.50;49.30;;;;;;5011150;28;20424;-57
2022/10/09 00:03:16;;;;;;;10.05;8.45;;;23.50;49.30;;;;;;5010475;28;19921;-57
2022/10/09 00:05:44;;;;;;;9.43;8.18;;;23.40;49.30;;;;;;5007390;28;20054;-56
2022/10/09 00:08:11;;;;;;;9.52;8.25;;;23.50;49.40;;;;;;5007380;28;20049;-56
2022/10/09 00:10:42;;;;;;;10.70;8.93;;;23.40;49.30;;;;;;5010110;28;20057;-57
2022/10/09 00:13:10;;;;;;;9.77;8.57;;;23.40;49.30;;;;;;5008925;28;20050;-57
2022/10/09 00:15:40;;;;;;;10.02;8.30;;;23.40;49.30;;;;;;5010803;28;20085;-57
2022/10/09 00:18:09;;;;;;;10.10;8.65;;;23.50;49.40;;;;;;5009710;28;20491;-57
2022/10/09 00:20:38;;;;;;;10.23;8.85;;;23.50;49.40;;;;;;5010013;28;20052;-57
2022/10/09 00:23:06;;;;;;;10.93;9.50;;;23.40;49.30;;;;;;5010488;28;20046;-57
2022/10/09 00:25:34;;;;;;;11.80;9.18;;;23.50;49.30;;;;;;5009349;28;20053;-57
2022/10/09 00:28:03;;;;;;;13.10;9.50;;;23.50;49.30;;;;;;5009827;28;20046;-57
2022/10/09 00:30:30;;;;;;;10.60;8.75;;;23.50;49.90;;;;;;5009648;28;20045;-57
2022/10/09 00:32:57;;;;;;;9.95;8.63;;;23.50;49.30;;;;;;5010858;28;20054;-57
2022/10/09 00:35:24;;;;;;;12.43;9.57;;;23.50;49.30;;;;;;5008990;28;20045;-56
2022/10/09 00:37:51;;;;;;;9.23;8.23;;;23.50;49.30;;;;;;5005467;28;20072;-56
2022/10/09 00:40:18;;;;;;;9.85;8.73;;;23.50;49.30;;;;;;5009871;28;20050;-57
2022/10/09 00:42:47;;;;;;;11.15;8.90;;;23.50;49.30;;;;;;5008870;28;20502;-57
2022/10/09 00:45:20;;;;;;;11.63;9.18;;;23.40;49.20;;;;;;5009825;28;20050;-57
2022/10/09 00:47:51;;;;;;;9.68;8.68;;;23.50;49.30;;;;;;5009612;28;20142;-57
2022/10/09 00:50:43;;;;;;;9.35;8.35;;;23.40;49.20;;;;;;5009847;28;20057;-57
2022/10/09 00:53:14;;;;;;;10.43;8.85;;;23.40;49.20;;;;;;5008732;28;20049;-57
2022/10/09 00:55:42;;;;;;;9.70;8.40;;;23.40;49.20;;;;;;5009435;28;20080;-57
2022/10/09 00:58:11;;;;;;;11.63;9.23;;;23.40;49.30;;;;;;5009450;28;20184;-57
2022/10/09 01:00:39;;;;;;;10.45;8.73;;;23.40;49.30;;;;;;5008936;28;20471;-57
2022/10/09 01:03:07;;;;;;;12.07;9.57;;;23.40;49.20;;;;;;5010067;28;20050;-57
2022/10/09 01:06:03;;;;;;;10.90;8.27;;;23.40;49.30;;;;;;5008482;28;20057;-57
2022/10/09 01:08:40;;;;;;;10.73;8.93;;;23.40;49.30;;;;;;5008949;28;20045;-57
2022/10/09 01:11:19;;;;;;;10.98;9.05;;;23.40;49.30;;;;;;5003579;28;20053;-56
2022/10/09 01:13:55;;;;;;;10.55;8.80;;;23.50;49.30;;;;;;5009151;28;20198;-56
2022/10/09 01:16:34;;;;;;;11.57;9.00;;;23.40;49.30;;;;;;5007617;28;20053;-56
2022/10/09 01:19:41;;;;;;;10.30;7.78;;;23.40;49.30;;;;;;5008376;28;20109;-57
2022/10/09 01:22:44;;;;;;;10.68;7.85;;;23.40;49.30;;;;;;5009263;28;20045;-56
2022/10/09 01:25:22;;;;;;;10.02;8.00;;;23.50;49.40;;;;;;5008264;28;20056;-56
2022/10/09 01:27:52;;;;;;;9.25;7.97;;;23.40;49.30;;;;;;5009585;28;20049;-56
2022/10/09 01:30:19;;;;;;;10.52;8.98;;;23.40;49.40;;;;;;5008418;28;20371;-56
2022/10/09 01:32:50;;;;;;;10.00;8.45;;;23.40;49.40;;;;;;5008815;28;20057;-57
2022/10/09 01:35:19;;;;;;;10.30;8.30;;;23.40;49.40;;;;;;5009269;28;20325;-57
2022/10/09 01:37:47;;;;;;;10.32;8.30;;;23.40;49.40;;;;;;5008667;28;20050;-56
2022/10/09 01:40:16;;;;;;;9.52;8.32;;;23.40;49.40;;;;;;5008951;28;20415;-56
2022/10/09 01:42:45;;;;;;;8.73;7.82;;;23.40;49.50;;;;;;5004237;28;20053;-56
2022/10/09 01:45:14;;;;;;;;;;;23.40;49.50;;;;;;5009174;28;20057;-56
2022/10/09 01:47:41;;;;;;;10.32;8.43;;;23.40;50.00;;;;;;5008879;28;20322;-56
2022/10/09 01:50:20;;;;;;;9.63;8.43;;;23.40;49.40;;;;;;5008209;28;20049;-56
2022/10/09 01:52:59;;;;;;;9.30;8.30;;;23.40;49.40;;;;;;5008931;28;20050;-56
2022/10/09 01:55:56;;;;;;;9.82;8.70;;;23.40;49.40;;;;;;5006442;28;20278;-56
2022/10/09 01:58:40;;;;;;;12.27;9.13;;;23.50;49.40;;;;;;5008066;28;20050;-57
2022/10/09 02:01:16;;;;;;;8.88;7.97;;;23.40;49.30;;;;;;5008265;28;20042;-56
2022/10/09 02:03:47;;;;;;;10.05;8.70;;;23.40;49.30;;;;;;5008451;28;20042;-56
2022/10/09 02:06:16;;;;;;;9.68;7.85;;;23.40;49.30;;;;;;5008100;28;20057;-57
2022/10/09 02:08:46;;;;;;;8.73;7.82;;;23.40;49.30;;;;;;5006940;28;20041;-56
2022/10/09 02:11:14;;;;;;;10.68;8.10;;;23.40;49.30;;;;;;5008474;28;20046;-56
2022/10/09 02:13:42;;;;;;;9.80;8.45;;;23.50;49.40;;;;;;5003544;28;20045;-56
2022/10/09 02:16:28;;;;;;;8.88;7.93;;;23.40;49.30;;;;;;4988827;28;20050;-56
2022/10/09 02:19:09;;;;;;;9.77;8.13;;;23.50;49.40;;;;;;4988681;28;20131;-56
2022/10/09 02:21:42;;;;;;;9.75;8.05;;;23.40;49.40;;;;;;4988285;28;20058;-57
2022/10/09 02:24:18;;;;;;;9.13;8.23;;;23.40;49.30;;;;;;4988588;28;20503;-56
2022/10/09 02:26:45;;;;;;;9.50;7.85;;;23.40;49.30;;;;;;4988780;28;20542;-56
2022/10/09 02:29:13;;;;;;;8.90;8.00;;;23.40;49.30;;;;;;4988757;28;20042;-57
2022/10/09 02:31:42;;;;;;;9.82;8.60;;;23.40;49.30;;;;;;4988109;28;20050;-56
2022/10/09 02:34:13;;;;;;;9.40;8.13;;;23.40;49.30;;;;;;4988460;28;20050;-56
2022/10/09 02:36:40;;;;;;;9.43;7.90;;;23.40;49.30;;;;;;4986843;28;20105;-57
2022/10/09 02:39:08;;;;;;;10.30;7.50;;;23.40;49.30;;;;;;4988729;28;20466;-56
2022/10/09 02:41:35;;;;;;;8.63;7.05;;;23.40;49.40;;;;;;4988275;28;20060;-57
2022/10/09 02:44:04;;;;;;;9.50;7.60;;;23.40;49.30;;;;;;4987804;28;20053;-56
2022/10/09 02:46:32;;;;;;;10.38;7.43;;;23.40;49.30;;;;;;4983764;28;20113;-57
2022/10/09 02:49:00;;;;;;;8.73;7.82;;;23.40;49.40;;;;;;4988239;28;20046;-56
2022/10/09 02:51:27;;;;;;;8.75;7.72;;;23.40;49.40;;;;;;5002767;28;20506;-57
2022/10/09 02:53:54;;;;;;;8.07;7.28;;;23.40;49.30;;;;;;5008613;28;20169;-57
2022/10/09 02:56:22;;;;;;;9.48;8.35;;;23.40;49.40;;;;;;5007304;28;20521;-56
2022/10/09 02:58:50;;;;;;;8.30;7.40;;;23.40;49.40;;;;;;5007959;28;20046;-56
2022/10/09 03:01:18;;;;;;;8.90;7.65;;;23.40;49.40;;;;;;5007821;28;20042;-56
2022/10/09 03:03:45;;;;;;;9.75;7.95;;;23.40;49.40;;;;;;5008357;28;20442;-57
2022/10/09 03:06:14;;;;;;;9.38;7.50;;;23.40;49.40;;;;;;5007844;28;20118;-57
2022/10/09 03:08:44;;;;;;;8.55;7.38;;;23.40;49.50;;;;;;5010927;28;20050;-56
2022/10/09 03:11:14;;;;;;;8.98;7.57;;;23.40;49.50;;;;;;5011807;28;20046;-57
2022/10/09 03:13:41;;;;;;;8.48;7.57;;;23.40;49.50;;;;;;5009944;28;20050;-57
2022/10/09 03:16:11;;;;;;;8.63;7.38;;;23.40;49.50;;;;;;5011253;28;20513;-56
2022/10/09 03:18:39;;;;;;;8.52;7.43;;;23.40;49.50;;;;;;5006676;28;20538;-57
2022/10/09 03:21:08;;;;;;;8.35;7.47;;;23.40;49.40;;;;;;5010733;28;20490;-56
2022/10/09 03:23:37;;;;;;;9.15;7.78;;;23.40;49.40;;;;;;5011383;28;20050;-57
2022/10/09 03:26:10;;;;;;;8.50;7.60;;;23.40;49.40;;;;;;5011079;28;20042;-57
2022/10/09 03:28:39;;;;;;;8.63;7.53;;;23.40;49.30;;;;;;5011024;28;20490;-57
2022/10/09 03:31:07;;;;;;;8.93;7.30;;;23.40;49.30;;;;;;5010398;28;20050;-56
2022/10/09 03:33:35;;;;;;;9.90;7.80;;;23.40;49.30;;;;;;5011080;28;20065;-57
2022/10/09 03:36:03;;;;;;;8.70;7.63;;;23.40;49.30;;;;;;5010815;28;20057;-56
2022/10/09 03:38:30;;;;;;;8.57;7.55;;;23.40;49.30;;;;;;5010557;28;20053;-57
2022/10/09 03:40:59;;;;;;;9.68;7.40;;;23.40;49.30;;;;;;5011899;28;20062;-56
2022/10/09 03:43:27;;;;;;;8.15;7.03;;;23.40;49.30;;;;;;5010767;28;20050;-56
2022/10/09 03:45:55;;;;;;;8.75;7.72;;;23.40;49.30;;;;;;5010251;28;20042;-56
2022/10/09 03:48:26;;;;;;;7.90;7.05;;;23.40;49.30;;;;;;5011025;28;20049;-57
2022/10/09 03:50:53;;;;;;;9.00;7.07;;;23.40;49.30;;;;;;5006188;28;20517;-57
2022/10/09 03:53:20;;;;;;;9.52;7.85;;;23.40;49.30;;;;;;5010795;28;20502;-57
2022/10/09 03:55:47;;;;;;;7.88;7.00;;;23.40;49.30;;;;;;5010046;28;20060;-56
2022/10/09 03:58:14;;;;;;;8.05;7.22;;;23.40;49.30;;;;;;5010500;28;20525;-57
2022/10/09 04:00:44;;;;;;;9.18;7.03;;;23.40;49.30;;;;;;5010612;28;20056;-57
2022/10/09 04:03:11;;;;;;;7.70;6.90;;;23.40;49.40;;;;;;5009735;28;20049;-57
2022/10/09 04:05:38;;;;;;;8.60;7.72;;;23.40;49.30;;;;;;5010497;28;20050;-57
2022/10/09 04:08:05;;;;;;;8.25;7.38;;;23.40;49.40;;;;;;5010152;28;20046;-57
2022/10/09 04:10:32;;;;;;;9.18;7.30;;;23.40;49.30;;;;;;5010338;28;20498;-56
2022/10/09 04:12:59;;;;;;;8.93;7.72;;;23.40;49.40;;;;;;5010073;28;20526;-57
2022/10/09 04:15:26;;;;;;;7.90;7.10;;;23.40;49.40;;;;;;5010280;28;20060;-57
2022/10/09 04:17:53;;;;;;;8.82;7.65;;;23.40;49.40;;;;;;5009704;28;20058;-55
2022/10/09 04:20:21;;;;;;;9.30;7.45;;;23.40;49.30;;;;;;5009927;28;20457;-57
2022/10/09 04:22:48;;;;;;;8.88;7.25;;;23.40;49.40;;;;;;5005692;28;20461;-57
2022/10/09 04:25:16;;;;;;;7.88;7.07;;;23.40;49.40;;;;;;5010060;28;20046;-57
2022/10/09 04:27:43;;;;;;;7.47;6.78;;;23.40;49.40;;;;;;5009778;28;20070;-56
2022/10/09 04:30:10;;;;;;;8.15;6.85;;;23.40;49.50;;;;;;5010497;28;20045;-56
2022/10/09 04:32:37;;;;;;;7.50;6.72;;;23.40;49.50;;;;;;5009686;28;20068;-56
2022/10/09 04:35:05;;;;;;;8.73;7.60;;;23.30;49.40;;;;;;5009834;28;20046;-56
2022/10/09 04:37:33;;;;;;;7.45;6.75;;;23.30;49.40;;;;;;5009688;28;20056;-56
2022/10/09 04:40:00;;;;;;;9.20;7.63;;;23.30;49.30;;;;;;5009989;28;20053;-56
2022/10/09 04:42:27;;;;;;;8.55;7.20;;;23.30;49.20;;;;;;5009701;28;20057;-56
2022/10/09 04:44:54;;;;;;;9.20;6.85;;;23.30;49.10;;;;;;5009211;28;20050;-56
2022/10/09 04:47:21;;;;;;;8.32;7.53;;;23.30;49.00;;;;;;5009773;28;20058;-56
2022/10/09 04:49:48;;;;;;;7.97;7.15;;;23.30;48.90;;;;;;5009795;28;20046;-58
2022/10/09 04:52:15;;;;;;;8.25;7.22;;;23.30;48.90;;;;;;5009187;28;20050;-56
2022/10/09 04:54:42;;;;;;;8.07;7.22;;;23.30;48.80;;;;;;5003886;28;20049;-56
2022/10/09 04:57:09;;;;;;;7.55;6.75;;;23.30;48.70;;;;;;5009452;28;20046;-56
2022/10/09 04:59:36;;;;;;;8.10;7.30;;;23.30;48.70;;;;;;5009516;28;20511;-56
2022/10/09 05:02:03;;;;;;;8.13;7.32;;;23.30;48.70;;;;;;5009114;28;20050;-57
2022/10/09 05:04:30;;;;;;;8.48;7.18;;;23.30;48.70;;;;;;5009507;28;20056;-56
2022/10/09 05:06:57;;;;;;;9.68;6.78;;;23.30;48.70;;;;;;5009361;28;20042;-56
2022/10/09 05:09:25;;;;;;;7.55;6.60;;;23.30;48.70;;;;;;5009160;28;20080;-56
2022/10/09 05:11:52;;;;;;;8.07;6.57;;;23.30;48.60;;;;;;5009512;28;20054;-57
2022/10/09 05:14:19;;;;;;;8.20;7.10;;;23.30;48.60;;;;;;5008845;28;20049;-56
2022/10/09 05:16:51;;;;;;;8.45;6.97;;;23.30;48.50;;;;;;5016838;28;20057;-56
2022/10/09 05:19:38;;;;;;;8.38;7.03;;;23.30;48.50;;;;;;5008008;28;20293;-56
2022/10/09 05:22:05;;;;;;;7.97;7.18;;;23.30;48.50;;;;;;5008748;28;20655;-57
2022/10/09 05:24:32;;;;;;;7.80;6.95;;;23.30;48.40;;;;;;5008373;28;20046;-57
2022/10/09 05:26:59;;;;;;;8.75;7.78;;;23.30;48.40;;;;;;5004564;28;20072;-56
2022/10/09 05:29:26;;;;;;;7.30;6.60;;;23.30;48.30;;;;;;5007002;28;20395;-56
2022/10/09 05:31:53;;;;;;;8.65;6.93;;;23.30;48.30;;;;;;5008339;28;20056;-56
2022/10/09 05:34:21;;;;;;;8.02;7.18;;;23.30;48.30;;;;;;5008844;28;20073;-57
2022/10/09 05:36:48;;;;;;;7.97;6.90;;;23.30;48.20;;;;;;5009180;28;20051;-56
2022/10/09 05:39:15;;;;;;;7.53;6.80;;;23.30;48.20;;;;;;5008367;28;20058;-56
2022/10/09 05:41:42;;;;;;;7.55;6.82;;;23.30;48.10;;;;;;5008782;28;20050;-57
2022/10/09 05:44:10;;;;;;;7.70;6.93;;;23.30;48.10;;;;;;5008133;28;20060;-57
2022/10/09 05:46:37;;;;;;;8.77;7.28;;;23.30;48.10;;;;;;5008540;28;20038;-56
2022/10/09 05:49:05;;;;;;;7.32;6.47;;;23.30;48.00;;;;;;5008427;28;20060;-57
2022/10/09 05:51:35;;;;;;;8.07;6.63;;;23.30;48.00;;;;;;5008639;28;20046;-57
2022/10/09 05:54:03;;;;;;;7.80;6.15;;;23.30;48.00;;;;;;5008494;28;20053;-57
2022/10/09 05:56:33;;;;;;;7.32;6.55;;;23.40;48.00;;;;;;5008210;28;20048;-57
2022/10/09 05:59:09;;;;;;;7.57;6.55;;;23.40;47.90;;;;;;5003856;28;20054;-56
2022/10/09 06:01:39;;;;;;;7.35;6.63;;;23.40;47.90;;;;;;5008590;28;20046;-57
2022/10/09 06:04:09;;;;;;;7.40;6.63;;;23.40;47.90;;;;;;5007936;28;20108;-57
2022/10/09 06:06:38;;;;;;;7.03;6.32;;;23.40;47.80;;;;;;5008536;28;20054;-57
2022/10/09 06:09:07;;;;;;;7.57;6.78;;;23.50;47.80;;;;;;5008490;28;20046;-57
2022/10/09 06:11:36;;;;;;;7.38;5.65;;;23.50;47.80;;;;;;5007933;28;20053;-56
2022/10/09 06:14:05;;;;;;;6.53;5.82;;;23.50;47.70;;;;;;5008209;28;20054;-57
2022/10/09 06:16:37;;;;;;;6.68;6.03;;;23.50;47.70;;;;;;5008724;28;20498;-56
2022/10/09 06:19:06;;;;;;;6.40;5.80;;;23.60;47.70;;;;;;5007087;28;20129;-57
2022/10/09 06:21:34;;;;;;;7.20;6.22;;;23.60;47.70;;;;;;5008163;28;20072;-57
2022/10/09 06:24:03;;;;;;;7.57;6.57;;;23.60;47.60;;;;;;5007456;28;20042;-56
2022/10/09 06:26:30;;;;;;;7.35;6.38;;;23.60;47.60;;;;;;5008099;28;20038;-56
2022/10/09 06:28:59;;;;;;;6.47;5.78;;;23.60;47.60;;;;;;5008104;28;20513;-57
2022/10/09 06:31:31;;;;;;;7.22;6.10;;;23.70;47.60;;;;;;4994202;28;20061;-57
2022/10/09 06:34:00;;;;;;;6.43;5.43;;;23.60;47.50;;;;;;4988629;28;20065;-56
2022/10/09 06:36:29;;;;;;;6.03;5.43;;;23.70;47.50;;;;;;4987573;28;20057;-57
2022/10/09 06:38:58;;;;;;;7.13;5.28;;;23.70;47.50;;;;;;4988540;28;20407;-56
2022/10/09 06:41:27;;;;;;;6.03;5.43;;;23.70;47.50;;;;;;4989508;28;20042;-56
2022/10/09 06:43:56;;;;;;;6.18;5.55;;;23.70;47.40;;;;;;4992187;28;20421;-57
2022/10/09 06:46:30;;;;;;;6.43;5.53;;;23.80;47.40;;;;;;4991173;28;20050;-57
2022/10/09 06:48:59;;;;;;;6.47;4.88;;;23.80;47.40;;;;;;4991831;28;20054;-57
2022/10/09 06:51:27;;;;;;;5.13;4.63;;;23.80;47.40;;;;;;4991932;28;20250;-57
2022/10/09 06:53:56;;;;;;;6.35;5.75;;;23.80;47.30;;;;;;4998774;28;20545;-57
2022/10/09 06:56:27;;;;;;;5.97;5.38;;;23.80;47.30;;;;;;5010270;28;20419;-56
2022/10/09 06:58:54;;;;;;;8.05;5.60;;;23.90;47.40;;;;;;5011768;28;20046;-57
2022/10/09 07:01:29;;;;;;;6.57;4.90;;;23.90;47.30;;;;;;5011100;28;20046;-57
2022/10/09 07:04:01;;;;;;;7.05;5.55;;;23.90;47.30;;;;;;5006938;28;20249;-56
2022/10/09 07:06:35;;;;;;;5.28;4.78;;;23.90;47.30;;;;;;5011745;28;20049;-57
2022/10/09 07:09:06;;;;;;;5.90;5.40;;;23.90;47.30;;;;;;5011356;28;20445;-56
2022/10/09 07:11:36;;;;;;;6.18;5.28;;;23.90;47.30;;;;;;5011705;28;20050;-57
2022/10/09 07:14:05;;;;;;;6.27;5.53;;;23.90;47.30;;;;;;5011838;28;20116;-57
2022/10/09 07:16:37;;;;;;;5.85;5.25;;;23.90;47.20;;;;;;5011326;28;20045;-56
2022/10/09 07:19:10;;;;;;;6.28;4.63;;;23.90;47.30;;;;;;5011404;28;20049;-57
2022/10/09 07:21:40;;;;;;;6.25;5.00;;;23.90;47.20;;;;;;5010653;28;20050;-56
2022/10/09 07:24:08;;;;;;;6.70;5.25;;;24.00;47.20;;;;;;5011277;28;20141;-59
2022/10/09 07:26:38;;;;;;;5.57;4.95;;;24.00;47.10;;;;;;5010679;28;20050;-59
2022/10/09 07:29:08;;;;;;;5.68;5.18;;;24.00;47.00;;;;;;5010857;28;20482;-59
2022/10/09 07:31:35;;;;;;;5.60;4.47;;;24.10;47.00;;;;;;5011001;28;20061;-59
2022/10/09 07:34:02;;;;;;;4.97;4.47;;;24.10;46.90;;;;;;5006925;28;20601;-59
2022/10/09 07:36:29;;;;;;;5.43;4.63;;;24.10;46.80;;;;;;5010816;28;20057;-60
2022/10/09 07:38:58;;;;;;;5.72;4.70;;;24.20;46.70;;;;;;5009730;28;20042;-59
2022/10/09 07:41:27;;;;;;;5.45;4.30;;;24.20;46.70;;;;;;5011282;28;20046;-59
2022/10/09 07:43:55;;;;;;;5.17;4.43;;;24.30;46.60;;;;;;5010863;28;20050;-59
2022/10/09 07:46:24;;;;;;;4.45;4.05;;;24.30;46.50;;;;;;5010732;28;20422;-59
2022/10/09 07:48:57;;;;;;;5.75;4.63;;;24.30;46.40;;;;;;5010606;28;20493;-59
2022/10/09 07:51:26;;;;;;;5.07;4.20;;;24.30;46.40;;;;;;5010166;28;20061;-56
2022/10/09 07:53:53;;;;;;;4.57;4.03;;;24.30;46.30;;;;;;5008435;28;20057;-56
2022/10/09 07:56:23;;;;;;;5.28;3.70;;;24.40;46.30;;;;;;5010259;28;20247;-56
2022/10/09 07:58:55;;;;;;;5.90;4.30;;;24.40;46.20;;;;;;5010289;28;20046;-56
2022/10/09 08:01:24;;;;;;;5.30;4.30;;;24.40;46.20;;;;;;5010744;28;20284;-56
2022/10/09 08:03:51;;;;;;;4.43;4.03;;;24.40;46.20;;;;;;5010109;28;20081;-56
2022/10/09 08:06:18;;;;;;;5.30;3.72;;;24.40;46.10;;;;;;5010517;28;20129;-57
2022/10/09 08:08:50;;;;;;;5.82;3.88;;;24.40;46.00;;;;;;5004130;28;20403;-56
2022/10/09 08:11:18;;;;;;;4.65;4.22;;;24.50;46.00;;;;;;5010460;28;20384;-56
2022/10/09 08:13:47;;;;;;;5.78;4.40;;;24.50;46.00;;;;;;5010023;28;20050;-56
2022/10/09 08:16:15;;;;;;;4.63;4.03;;;24.50;45.90;;;;;;5009189;28;20057;-56
2022/10/09 08:18:42;;;;;;;4.88;4.38;;;24.50;45.80;;;;;;4990624;28;20160;-56
2022/10/09 08:21:13;;;;;;;5.18;4.50;;;24.50;45.80;;;;;;4989665;28;20058;-57
2022/10/09 08:23:40;;;;;;;7.85;3.92;;;24.50;45.70;;;;;;4989441;28;20247;-56
2022/10/09 08:26:16;;;;;;;4.20;3.80;;;24.60;45.70;;;;;;4992970;28;20045;-56
2022/10/09 08:28:48;;;;;;;4.32;3.92;;;24.60;45.70;;;;;;5008139;28;20058;-57
2022/10/09 08:31:17;;;;;;;4.68;3.80;;;24.50;45.60;;;;;;5010260;28;20053;-57
2022/10/09 08:33:44;;;;;;;3.70;3.40;;;24.60;45.60;;;;;;5010122;28;20089;-57
2022/10/09 08:36:14;;;;;;;4.25;3.50;;;24.60;46.10;;;;;;5010107;28;20497;-56
2022/10/09 08:38:42;;;;;;;4.28;3.70;;;24.70;45.50;;;;;;5004650;28;20050;-56
2022/10/09 08:41:48;;;;;;;4.63;3.50;;;24.70;45.50;;;;;;5009833;28;20057;-56
2022/10/09 08:44:32;;;;;;;5.10;4.28;;;24.70;45.40;;;;;;5008930;28;20045;-57
2022/10/09 08:47:16;;;;;;;5.07;3.55;;;24.70;45.30;;;;;;5009294;28;20057;-57
2022/10/09 08:50:11;;;;;;;4.13;3.70;;;24.70;45.20;;;;;;5009132;28;20069;-57
2022/10/09 08:53:04;;;;;;;3.67;3.38;;;24.80;45.20;;;;;;5008184;28;20045;-56
2022/10/09 08:55:49;;;;;;;4.43;3.90;;;24.80;45.10;;;;;;5008755;28;20046;-57
2022/10/09 08:58:19;;;;;;;4.45;3.72;;;24.90;45.00;;;;;;5009141;28;20062;-56
2022/10/09 09:00:53;;;;;;;3.85;3.50;;;24.90;44.80;;;;;;5009632;28;20053;-57
2022/10/09 09:03:50;;;;;;;4.03;3.15;;;24.90;44.70;;;;;;5008620;28;20126;-56
2022/10/09 09:06:56;;;;;;;3.53;3.20;;;24.90;44.60;;;;;;5008446;28;20050;-57
2022/10/09 09:09:40;;;;;;;3.60;3.30;;;24.90;44.40;;;;;;5008240;28;20053;-56
2022/10/09 09:12:44;;;;;;;3.85;3.53;;;24.90;44.30;;;;;;5004311;28;20046;-56
2022/10/09 09:15:46;;;;;;;4.18;2.95;;;24.90;44.20;;;;;;5008367;28;20058;-56
2022/10/09 09:18:42;;;;;;;5.32;3.17;;;25.00;44.20;;;;;;5008563;28;20042;-56
2022/10/09 09:21:39;;;;;;;4.07;3.47;;;25.00;44.10;;;;;;5008939;28;20100;-57
2022/10/09 09:24:17;;;;;;;5.75;2.97;;;25.10;44.10;;;;;;5025337;28;20536;-57
2022/10/09 09:26:54;;;;;;;4.45;3.72;;;25.10;44.10;;;;;;5028422;28;20049;-57
2022/10/09 09:29:23;;;;;;;4.90;3.25;;;25.10;44.00;;;;;;5028929;28;20390;-57
2022/10/09 09:31:57;;;;;;;3.67;3.38;;;25.10;44.00;;;;;;5028200;28;20429;-57
2022/10/09 09:34:36;;;;;;;5.57;3.30;;;25.10;44.10;;;;;;5027788;28;20437;-56
2022/10/09 09:37:03;;;;;;;4.97;3.25;;;25.10;44.10;;;;;;5028890;28;20061;-57
2022/10/09 09:39:34;;;;;;;3.30;3.00;;;25.10;44.00;;;;;;5028205;28;20049;-56
2022/10/09 09:42:21;;;;;;;3.28;2.63;;;25.10;44.00;;;;;;5028331;28;20061;-59
2022/10/09 09:45:01;;;;;;;4.53;3.72;;;25.10;43.90;;;;;;5023945;28;20386;-56
2022/10/09 09:47:43;;;;;;;3.72;3.30;;;25.10;43.90;;;;;;5028681;28;20046;-59
2022/10/09 09:50:10;;;;;;;4.43;3.30;;;25.10;43.80;;;;;;5027966;28;20132;-59
2022/10/09 09:53:03;;;;;;;5.47;3.25;;;25.10;43.80;;;;;;5027985;28;20041;-58
2022/10/09 09:55:32;;;;;;;4.05;3.28;;;25.10;43.70;;;;;;5028402;28;20045;-59
2022/10/09 09:58:03;;;;;;;3.35;3.05;;;25.10;43.70;;;;;;5024197;28;20065;-59
2022/10/09 10:00:31;;;;;;;3.95;3.00;;;25.10;43.70;;;;;;4989135;28;20419;-58
2022/10/09 10:03:13;;;;;;;2.90;2.70;;;25.10;43.70;;;;;;4988914;28;20298;-59
2022/10/09 10:05:43;;;;;;;3.90;3.50;;;25.10;43.80;;;;;;4989129;28;20503;-59
2022/10/09 10:08:20;;;;;;;3.88;3.22;;;25.10;43.70;;;;;;4987508;28;20046;-59
2022/10/09 10:10:49;;;;;;;4.38;3.60;;;25.10;43.70;;;;;;4988751;28;20073;-59
2022/10/09 10:13:24;;;;;;;3.22;2.92;;;25.10;43.70;;;;;;4989548;28;20046;-59
2022/10/09 10:15:56;;;;;;;2.80;2.60;;;25.10;43.60;;;;;;4982969;28;20054;-58
2022/10/09 10:18:27;;;;;;;3.60;3.20;;;25.10;43.60;;;;;;4988767;28;20053;-59
2022/10/09 10:21:07;;;;;;;3.67;3.05;;;25.10;44.10;;;;;;4988592;28;20055;-59
2022/10/09 10:23:57;;;;;;;3.70;3.40;;;25.10;43.50;;;;;;4988329;28;20042;-59
2022/10/09 10:26:40;;;;;;;2.75;2.55;;;25.10;43.50;;;;;;4988898;28;20478;-59
2022/10/09 10:29:19;;;;;;;2.83;2.58;;;25.10;43.40;;;;;;4988603;28;20438;-59
2022/10/09 10:31:58;;;;;;;8.07;2.65;;;25.10;43.40;;;;;;4988831;28;20061;-59
2022/10/09 10:34:34;;;;;;;5.82;2.97;;;25.10;43.20;;;;;;4988398;28;20065;-59
2022/10/09 10:37:14;;;;;;;5.78;3.17;;;25.10;43.10;;;;;;4988751;28;20050;-59
2022/10/09 10:39:56;;;;;;;3.38;2.75;;;25.20;43.20;;;;;;4988128;28;20060;-58
2022/10/09 10:42:39;;;;;;;3.65;2.97;;;25.20;43.10;;;;;;4988734;28;20502;-59
2022/10/09 10:45:18;;;;;;;4.00;2.78;;;25.20;43.10;;;;;;4986865;28;20050;-59
2022/10/09 10:47:52;;;;;;;3.10;2.85;;;25.20;43.10;;;;;;4983639;28;20057;-59
2022/10/09 10:50:20;;;;;;;3.50;2.95;;;25.20;43.00;;;;;;4988637;28;20046;-59
2022/10/09 10:53:21;;;;;;;3.13;2.83;;;25.20;43.00;;;;;;4987907;28;20058;-59
2022/10/09 10:56:03;;;;;;;3.13;2.50;;;25.20;43.00;;;;;;4988769;28;20050;-59
2022/10/09 10:58:56;;;;;;;3.58;2.97;;;25.20;43.00;;;;;;4988234;28;20090;-59
2022/10/09 11:01:43;;;;;;;3.40;2.75;;;25.20;43.00;;;;;;4988817;28;20507;-59
2022/10/09 11:04:50;;;;;;;2.83;2.63;;;25.20;43.00;;;;;;4988427;28;20283;-59
2022/10/09 11:07:56;;;;;;;2.45;2.25;;;25.30;43.10;;;;;;4988439;28;20450;-59
2022/10/09 11:10:58;;;;;;;3.03;2.80;;;25.30;42.90;;;;;;4988150;28;20051;-58
2022/10/09 11:13:36;;;;;;;2.90;2.70;;;25.30;42.90;;;;;;4986630;28;20050;-58
2022/10/09 11:16:42;;;;;;;2.80;2.50;;;25.30;42.80;;;;;;4987766;28;20046;-58
2022/10/09 11:19:47;;;;;;;2.97;2.70;;;25.30;42.80;;;;;;4984349;28;20046;-59
2022/10/09 11:22:54;;;;;;;2.80;2.58;;;25.30;42.80;;;;;;4986972;28;20490;-58
2022/10/09 11:25:29;;;;;;;2.97;2.55;;;25.30;42.70;;;;;;4988531;28;20461;-59
2022/10/09 11:28:19;;;;;;;2.80;2.53;;;25.30;42.40;;;;;;4989060;28;20422;-59
2022/10/09 11:30:56;;;;;;;3.08;2.75;;;25.40;42.40;;;;;;4991534;28;20104;-59
2022/10/09 11:33:34;;;;;;;4.13;2.63;;;25.40;42.40;;;;;;4995908;28;20620;-58
2022/10/09 11:36:09;;;;;;;3.47;2.42;;;25.40;42.40;;;;;;5010262;28;20072;-58
2022/10/09 11:38:51;;;;;;;2.80;2.45;;;25.40;42.90;;;;;;5011317;28;20525;-58
2022/10/09 11:41:19;;;;;;;2.97;2.47;;;25.40;42.30;;;;;;5010775;28;20053;-56
2022/10/09 11:44:16;;;;;;;2.60;2.38;;;25.40;42.30;;;;;;5011271;28;20046;-58
2022/10/09 11:47:11;;;;;;;2.58;2.38;;;25.40;42.30;;;;;;5010781;28;20069;-59
2022/10/09 11:49:58;;;;;;;3.00;2.70;;;25.40;42.30;;;;;;5011337;28;20453;-58
2022/10/09 11:53:05;;;;;;;2.85;2.42;;;25.40;42.20;;;;;;5006382;28;20049;-58
2022/10/09 11:55:32;;;;;;;3.30;2.42;;;25.40;42.20;;;;;;5010597;28;20065;-58
2022/10/09 11:58:13;;;;;;;2.35;2.15;;;25.40;42.70;;;;;;5010678;28;20053;-59
2022/10/09 12:00:41;;;;;;;2.45;2.25;;;25.50;42.20;;;;;;5010701;28;20058;-58
2022/10/09 12:03:28;;;;;;;2.70;2.42;;;25.50;42.20;;;;;;5010515;28;20056;-59
2022/10/09 12:06:04;;;;;;;2.45;2.25;;;25.50;42.10;;;;;;5010891;28;20056;-59
2022/10/09 12:08:32;;;;;;;3.08;2.78;;;25.50;42.10;;;;;;5009770;28;20050;-59
2022/10/09 12:11:12;;;;;;;2.50;2.30;;;25.50;42.00;;;;;;5009855;28;20042;-59
2022/10/09 12:13:44;;;;;;;2.17;1.98;;;25.50;42.00;;;;;;5009943;28;20042;-58
2022/10/09 12:16:30;;;;;;;2.60;2.38;;;25.50;42.00;;;;;;5008917;28;20376;-56
2022/10/09 12:19:01;;;;;;;2.22;2.08;;;25.50;42.00;;;;;;5009590;28;20081;-56
2022/10/09 12:21:42;;;;;;;1.88;1.75;;;25.50;41.90;;;;;;5009255;28;20049;-57
2022/10/09 12:24:21;;;;;;;3.50;2.10;;;25.50;41.90;;;;;;5004554;28;20046;-57
2022/10/09 12:26:51;;;;;;;2.90;2.50;;;25.50;41.90;;;;;;5008909;28;20050;-57
2022/10/09 12:29:34;;;;;;;2.33;2.13;;;25.60;41.90;;;;;;5009307;28;20422;-56
2022/10/09 12:32:06;;;;;;;2.97;2.58;;;25.60;41.90;;;;;;4997040;28;20046;-56
2022/10/09 12:34:41;;;;;;;3.05;2.13;;;25.60;41.90;;;;;;5010249;28;20409;-57
2022/10/09 12:37:20;;;;;;;2.45;2.03;;;25.60;41.80;;;;;;5009248;28;20042;-59
2022/10/09 12:39:48;;;;;;;4.97;2.75;;;25.60;41.80;;;;;;5009760;28;20046;-59
2022/10/09 12:42:20;;;;;;;2.83;2.63;;;25.60;41.70;;;;;;5002576;28;20081;-58
2022/10/09 12:44:49;;;;;;;2.50;2.30;;;25.60;41.70;;;;;;5006443;28;20042;-59
2022/10/09 12:47:25;;;;;;;2.50;2.30;;;25.60;41.70;;;;;;5008987;28;20057;-59
2022/10/09 12:50:01;;;;;;;3.10;2.00;;;25.60;41.70;;;;;;5009800;28;20076;-59
2022/10/09 12:52:30;;;;;;;2.20;1.88;;;25.60;41.70;;;;;;5006311;28;20056;-58
2022/10/09 12:54:57;;;;;;;2.70;2.50;;;25.60;41.70;;;;;;4998244;28;20497;-59
2022/10/09 12:57:26;;;;;;;2.90;2.47;;;25.70;41.70;;;;;;4998593;28;20313;-59
2022/10/09 12:59:55;;;;;;;2.03;1.92;;;25.60;41.70;;;;;;5000117;28;20098;-59
2022/10/09 13:02:22;;;;;;;2.35;2.15;;;25.70;41.70;;;;;;5004269;28;20049;-58
2022/10/09 13:04:59;;;;;;;2.35;2.15;;;25.70;41.70;;;;;;5004894;28;20489;-58
2022/10/09 13:07:28;;;;;;;2.35;2.08;;;25.70;41.60;;;;;;5002494;28;20097;-58
2022/10/09 13:10:05;;;;;;;2.72;2.38;;;25.70;41.50;;;;;;4999411;28;20561;-58
2022/10/09 13:12:33;;;;;;;3.53;2.58;;;25.70;41.50;;;;;;4999547;28;20299;-59
2022/10/09 13:15:04;;;;;;;2.20;2.00;;;25.70;41.50;;;;;;5005483;28;20477;-59
2022/10/09 13:17:35;;;;;;;2.83;2.28;;;25.70;41.40;;;;;;5003500;28;20050;-59